NL | EN | FR

Producten

ArtikelnummerOmschrijvingAankoop excl. BTWVerkoop incl. BTW
drt-1710000026DTM-C160-3x3/BL 66,00 79,86
drt-1710000027DTM-C160-3x4/BL 83,00 100,43
drt-1710000029DTM-C160-3x6/BL 121,00 146,41
drt-1710000043DTM-C300-4x3/BL 120,00 145,20
drt-1710000044DTM-C300-5x3/BL 147,00 177,87
drt-1710000045DTM-C300-6x3/BL 180,00 217,80
drt-1710000046DTM-C300-6x4/BL 234,00 283,14
drt-1710000047DTM-C300-6x5/BL 279,00 337,59
drt-1710000048DTM-S300-2x06/BL 29,30 35,45
drt-1710000049DTM-S300-2x08/BL 35,00 42,35
drt-1710000050DTM-S300-2x1/BL 40,00 48,40
drt-1710000052DTM-B300-30/WH 452,00 546,92
drt-1712000000Zwarte voetstukjes - 354931-10 1,23 1,49
drt-1721200006DT 31/2-T35 57,70 69,82
drt-1722200026DT 32/2-C21V-L90 99,00 119,79
drt-1722200031DT 32/2 C44H 4 way Corner 90 degree 191,00 231,11
drt-1722200033DT 32/2-C31V-LD90 148,00 179,08
drt-1722200034DT 32/2-T36H-T 129,00 156,09
drt-1722200036DT 32/2-T42H-TD 183,00 221,43
drt-1722300015DT 32/2V-Circle Part-2m-90 138,00 166,98
drt-1722300022DT 32/2H-Circle Part-2m-90dgr horizontal 138,00 166,98
drt-1723100029DT 43/2-500 449,00 543,29
drt-1723100033DT 33/2-025 85,00 102,85
drt-1723200023DT 23 C61-XUD X-joint + up + down 334,00 404,14
drt-1723200033DT 33/2-C31-LU 254,00 307,34
drt-1723200047DT 43/2-C19-L45 289,00 349,69
drt-1723200062DT 43/2- T43-UTD 355,00 429,55
drt-1723200063DT 43/2 C44-LUDR 90 degree corner + 389,00 470,69
drt-1723300017DT 33/2-Circle Part-8m-45dgr 446,00 539,66
drt-1723400028DT Truss Protector silver (Set: 100pcs) 56,70 68,61
drt-1723400029DT 34 Wall Mount 500kg 219,00 264,99
drt-1723400030DT Truss Protector black (Set: 100pcs) 59,85 72,42
drt-1723400031DT 34 Shelf 149,00 180,29
drt-1724100068DT 34/2-050 matt black 162,00 196,02
drt-1724100069DT 34/2-100 matt black 221,00 267,41
drt-1724100070DT 34/2-300 matt black 459,00 555,39
drt-1724100071DT 34/2-200 matt black 339,00 410,19
drt-1724100072DT 34/2-C21-L90 matt black 229,00 277,09
drt-1724100073DT 34/2-C30-LD matt black 339,00 410,19
drt-1724100074DT 34/2-T35-T matt black 302,00 365,42
drt-1724100075DT 34-BPM matt black 101,15 122,39
drt-1724200031DT 44/2-C30-LD90 320,00 387,20
drt-1724200055DT 44/3-050 174,00 210,54
drt-1724200056DT 44/3-100 239,00 289,19
drt-1724200058DT 44/3-200 359,00 434,39
drt-1724200060DT 44/3-300 479,00 579,59
drt-1724200061DT 44/3-350 549,00 664,29
drt-1724200062DT 44/3-400 609,00 736,89
drt-1724200063DT 44/3-450 669,00 809,49
drt-1724200064DT 44/3-500 719,00 869,99
drt-1724200065DT 44/3-C19 409,00 494,89
drt-1724200066DT 44/3-C20 449,00 543,29
drt-1724200067DT 44/3-C21 269,00 325,49
drt-1724200068DT 44/3-C22 264,00 319,44
drt-1724200069DT 44/3-C23 265,00 320,65
drt-1724200070DT 44/3-C30 399,00 482,79
drt-1724200071DT 44/3-T35 359,00 434,39
drt-1724200072DT 44/3-C41 489,00 591,69
drt-1724200073DT 44/3-T42 459,00 555,39
drt-1724200074DT 44/3-T51 599,00 724,79
drt-1724200075DT 44/3-T61 659,00 797,39
drt-1724300003DT-Dyno Wheel 202,00 244,42
drt-1724300004U-Frame 50cm 107,21 129,72
drt-1724300005U-Frame 100cm 132,82 160,71
drt-1724300006U-Frame Dolly 382,40 462,71
drt-1734000011DT ST-E450 42,90 51,91
drt-1734000012DT ST-A35-MM 44,10 53,36
drt-1741000047DT Jr Clamp-BLK 5,90 7,14
drt-1741000048DT Jr Swivel Clamp-BLK 9,90 11,98
drt-1749000015DT 30/40-HC+10mm 6,15 7,44
drt-1749000058DT 30/40- spacer 105 mm female female black 26,90 32,55
drt-50sviiifork50SV III fork 72,00 87,12
drt-50sviiim1250SV III M12 50,00 60,50
drt-50sviiinickelfork50 SV III nickel fork 73,00 88,33
drt-50sviiinickelm1250 SV III nickel M12 51,00 61,71
drt-50sviiinickelring50 SV III nickel ring 50,00 60,50
drt-50sviiiring50 SV III ring 49,00 59,29
drt-50sviiizwfork50SV III ZW fork 76,00 91,96
drt-50sviiizwm12i50SV III ZW M12i 60,00 72,60
drt-50sviiizwring50SV III ZW ring 63,00 76,23
drt-50sviiizwt5808150SV III ZW T58081 119,00 143,99
drt-66sviiifork66SV III fork 99,00 119,79
drt-66sviiim1666SV III M16 81,00 98,01
drt-66sviiiring66SV III ring 81,00 98,01
drt-66sviiizwfork66SV III ZW fork 113,00 136,73
drt-66sviiizwm16i66SV III ZW M16i 98,00 118,58
drt-66sviiizwring66SV III ZW ring 106,00 128,26
drt-66sviiizwt5810166SV III ZW T58101 161,00 194,81
drt-7031000053Blue Wheel Brake Tente 100mm 19,95 24,14
drt-80sviiifork80SV III fork 179,00 216,59
drt-80sviiim2080SV III M20 140,00 169,40
drt-80sviiiring80SV III ring 140,00 169,40
drt-80sviiizwfork80SV III ZW fork 180,00 217,80
drt-80sviiizwm20i80SV III ZW M20 i 144,00 174,24
drt-80sviiizwt5701080SV III ZW T57010 228,00 275,88
drt-acasw/conus/pininlayACA-SW/Conus/Pin Inlay for Conus Case 20,85 25,23
drt-acasw/pininlayACA-SW/Pin Inlay for Conus Case 16,57 20,05
drt-acfsw/conuscaseACF-SW/Conus case 132,99 160,92
drt-ascatujb1ASC-AT-UJB1 21,90 26,50
drt-ascatujb2ASC-AT-UJB2 29,90 36,18
 1 2 3 >  Laatste ›